Portada
METAR-TAF:

METAR-TAF

Aeroports :

Ballina, Austràlia

latitud: 28-50-00S, longitud: 153-33-42E, altitud: 2 m

Observació

L'informe es va fer fa 36 minuts, a les 02:00 UTC
Vent 10 kt del Sud/Sud-Est
Temperatura 22°C
Humitat 60%
Pressió 1022 hPa
Visibilitat 10 km o més
Núvols disperses a una alçada de 4800 ft
Cel ennuvolat a una alçada de 5600 ft

METAR: YBNA 190200Z AUTO 15010KT 9999 // SCT048 BKN056 22/14 Q1022

Hora: 12:36 (02:36 UTC)


TAF: manca

Observacions i pronòstics meteorològics de més de 4000 aeroports (METAR i TAF).

Les estacions disponibles són els punts grocs i vermells al mapa.

Posi el ratolí al punt desitjat per veure el nom de l'estació.

Feu clic per veure les observacions i els pronòstics meteorològics.

Per canviar el mapa: feu clic els botons verds amb una creu de color negre per apropar; al botó verd amb un guió per allunyar la imatge; o en les fletxes verdes per a mapes adjacents.


METAR-TAF: